createdAt,value
2019-02-14T00:02:10.772Z,36.03
2019-02-14T00:08:15.061Z,34.07
2019-02-14T00:14:19.629Z,32.23
2019-02-14T00:20:23.836Z,33.77
2019-02-14T00:26:28.043Z,33.03
2019-02-14T00:32:32.354Z,30.63
2019-02-14T00:38:36.572Z,34.27
2019-02-14T00:44:40.775Z,32.87
2019-02-14T00:50:45.068Z,30.33
2019-02-14T00:56:49.278Z,34.67
2019-02-14T01:02:53.691Z,30.47
2019-02-14T01:08:57.952Z,45.17
2019-02-14T01:15:02.229Z,37.90
2019-02-14T01:21:06.411Z,77.70
2019-02-14T01:27:10.689Z,42.47
2019-02-14T01:33:14.982Z,29.53
2019-02-14T01:39:19.323Z,31.03
2019-02-14T01:45:23.539Z,30.70
2019-02-14T01:51:27.820Z,30.57
2019-02-14T01:57:32.088Z,31.87
2019-02-14T02:03:36.383Z,30.10
2019-02-14T02:09:40.590Z,30.33
2019-02-14T02:15:44.837Z,33.20
2019-02-14T02:21:49.126Z,35.53
2019-02-14T02:27:53.492Z,32.87
2019-02-14T02:33:57.791Z,32.53
2019-02-14T02:40:01.991Z,30.87
2019-02-14T02:46:06.190Z,31.47
2019-02-14T02:52:10.455Z,28.43
2019-02-14T02:58:14.655Z,27.93
2019-02-14T03:04:18.859Z,25.67
2019-02-14T03:10:23.070Z,27.30
2019-02-14T03:16:27.343Z,25.83
2019-02-14T03:22:31.605Z,24.83
2019-02-14T03:28:35.816Z,28.07
2019-02-14T03:34:40.105Z,26.77
2019-02-14T03:40:44.327Z,26.83
2019-02-14T03:46:48.588Z,26.47
2019-02-14T03:52:52.791Z,26.30
2019-02-14T03:58:57.285Z,27.83
2019-02-14T04:05:01.505Z,31.27
2019-02-14T04:11:05.781Z,28.73
2019-02-14T04:17:09.981Z,29.80
2019-02-14T04:23:14.309Z,34.80
2019-02-14T04:29:18.595Z,30.07
2019-02-14T04:35:22.851Z,30.37
2019-02-14T04:41:27.032Z,32.07
2019-02-14T04:47:31.405Z,31.47
2019-02-14T04:53:35.594Z,28.77
2019-02-14T04:59:40.101Z,32.63
2019-02-14T05:05:44.303Z,30.83
2019-02-14T05:11:48.603Z,30.70
2019-02-14T05:17:52.818Z,31.13
2019-02-14T05:23:57.590Z,31.20
2019-02-14T05:30:01.848Z,28.03
2019-02-14T05:36:06.046Z,30.13
2019-02-14T05:42:10.422Z,34.53
2019-02-14T05:48:14.641Z,35.27
2019-02-14T05:54:19.000Z,34.20
2019-02-14T06:00:23.313Z,44.37
2019-02-14T06:06:27.599Z,33.13
2019-02-14T06:12:31.876Z,34.10
2019-02-14T06:18:36.084Z,35.93
2019-02-14T06:24:40.351Z,52.37
2019-02-14T06:30:44.644Z,52.87
2019-02-14T06:36:48.925Z,50.63
2019-02-14T06:42:53.287Z,34.43
2019-02-14T06:48:57.476Z,33.80
2019-02-14T06:55:04.466Z,35.03
2019-02-14T07:01:08.667Z,34.43
2019-02-14T07:07:18.666Z,36.27
2019-02-14T07:13:19.247Z,39.40
2019-02-14T07:19:23.476Z,36.83
2019-02-14T07:25:27.671Z,38.20
2019-02-14T07:31:31.839Z,37.97
2019-02-14T07:37:36.139Z,35.90
2019-02-14T07:43:40.417Z,38.20
2019-02-14T07:49:44.634Z,41.93
2019-02-14T07:55:48.837Z,38.17
2019-02-14T08:01:53.145Z,40.20
2019-02-14T08:07:57.349Z,43.70
2019-02-14T08:14:01.831Z,35.30
2019-02-14T08:20:06.615Z,36.93
2019-02-14T08:26:11.258Z,36.70
2019-02-14T08:32:15.673Z,34.40
2019-02-14T08:38:19.920Z,34.90
2019-02-14T08:44:24.124Z,41.00
2019-02-14T08:50:28.417Z,32.23
2019-02-14T08:56:32.622Z,34.97
2019-02-14T09:02:36.910Z,33.33
2019-02-14T09:08:41.094Z,36.10
2019-02-14T09:14:45.481Z,35.63
2019-02-14T09:20:49.704Z,34.20
2019-02-14T09:26:54.074Z,31.27
2019-02-14T09:32:58.468Z,35.33
2019-02-14T09:39:03.176Z,32.63
2019-02-14T09:45:08.398Z,31.37
2019-02-14T09:51:12.697Z,29.33
2019-02-14T09:57:17.045Z,29.63
2019-02-14T10:03:21.357Z,22.75
2019-02-14T10:09:25.717Z,33.10
2019-02-14T10:15:29.920Z,23.50
2019-02-14T10:21:34.137Z,24.27
2019-02-14T10:27:38.341Z,27.27
2019-02-14T10:33:42.633Z,26.53
2019-02-14T10:39:46.857Z,32.10
2019-02-14T10:45:51.068Z,23.77
2019-02-14T10:51:55.271Z,28.12
2019-02-14T10:58:02.550Z,23.70
2019-02-14T11:04:06.743Z,24.32
2019-02-14T11:10:11.617Z,24.25
2019-02-14T11:16:15.915Z,20.48
2019-02-14T11:22:20.135Z,26.27
2019-02-14T11:28:24.379Z,25.82
2019-02-14T11:34:28.728Z,28.02
2019-02-14T11:40:32.987Z,22.42
2019-02-14T11:46:37.391Z,23.10
2019-02-14T11:52:41.587Z,24.75
2019-02-14T11:58:45.802Z,23.98
2019-02-14T12:04:50.080Z,26.80
2019-02-14T12:10:54.269Z,26.77
2019-02-14T12:16:58.666Z,22.35
2019-02-14T12:23:03.008Z,22.02
2019-02-14T12:29:07.238Z,19.32
2019-02-14T12:35:11.428Z,18.00
2019-02-14T12:41:15.912Z,21.25
2019-02-14T12:47:20.164Z,13.85
2019-02-14T12:53:24.486Z,15.23
2019-02-14T12:59:28.790Z,17.98
2019-02-14T13:05:33.048Z,17.02
2019-02-14T13:11:37.368Z,21.77
2019-02-14T13:17:41.734Z,16.73
2019-02-14T13:23:46.174Z,22.37
2019-02-14T13:29:50.562Z,17.52
2019-02-14T13:35:54.923Z,18.55
2019-02-14T13:41:59.160Z,17.65
2019-02-14T13:48:03.375Z,18.92
2019-02-14T13:54:07.775Z,18.10
2019-02-14T14:00:15.837Z,19.98
2019-02-14T14:06:20.193Z,23.70
2019-02-14T14:12:24.426Z,21.52
2019-02-14T14:18:28.632Z,21.60
2019-02-14T14:24:32.859Z,19.15
2019-02-14T14:30:37.069Z,22.10
2019-02-14T14:36:41.503Z,21.02
2019-02-14T14:43:07.707Z,17.62
2019-02-14T14:49:12.110Z,18.48
2019-02-14T14:55:16.430Z,22.30
2019-02-14T15:01:20.995Z,22.07
2019-02-14T15:07:25.319Z,21.62
2019-02-14T15:13:29.709Z,26.52
2019-02-14T15:19:34.111Z,20.97
2019-02-14T15:25:38.337Z,15.60
2019-02-14T15:31:42.747Z,17.65
2019-02-14T15:37:47.306Z,18.73
2019-02-14T15:43:51.648Z,19.45
2019-02-14T15:49:56.119Z,21.73
2019-02-14T15:56:00.447Z,16.82
2019-02-14T16:02:06.227Z,22.25
2019-02-14T16:08:10.807Z,20.37
2019-02-14T16:14:18.150Z,22.30
2019-02-14T16:20:21.341Z,17.55
2019-02-14T16:26:25.747Z,21.42
2019-02-14T16:32:30.070Z,17.77
2019-02-14T16:38:35.516Z,17.20
2019-02-14T16:44:40.450Z,19.35
2019-02-14T16:50:44.821Z,22.90
2019-02-14T16:56:49.132Z,27.75
2019-02-14T17:02:53.442Z,24.12
2019-02-14T17:08:58.300Z,25.55
2019-02-14T17:15:02.902Z,25.52
2019-02-14T17:21:07.176Z,20.90
2019-02-14T17:27:11.415Z,25.77
2019-02-14T17:33:15.835Z,27.30
2019-02-14T17:39:20.238Z,25.02
2019-02-14T17:45:24.732Z,26.68
2019-02-14T17:51:29.017Z,26.55
2019-02-14T17:57:33.217Z,31.30
2019-02-14T18:03:37.540Z,30.68
2019-02-14T18:09:41.787Z,31.97
2019-02-14T18:15:46.058Z,39.92
2019-02-14T18:21:50.473Z,38.63
2019-02-14T18:27:55.623Z,31.30
2019-02-14T18:33:59.965Z,41.73
2019-02-14T18:40:04.595Z,37.48
2019-02-14T18:46:08.939Z,38.40
2019-02-14T18:52:13.270Z,35.75
2019-02-14T18:58:26.109Z,32.15
2019-02-14T19:04:23.755Z,31.60
2019-02-14T19:10:28.069Z,35.40
2019-02-14T19:16:32.318Z,38.95
2019-02-14T19:22:36.609Z,30.48
2019-02-14T19:28:40.906Z,40.28
2019-02-14T19:34:45.143Z,33.38
2019-02-14T19:40:49.379Z,43.10
2019-02-14T19:46:53.730Z,31.40
2019-02-14T19:52:58.037Z,30.52
2019-02-14T19:59:02.530Z,33.25
2019-02-14T20:05:07.692Z,36.25
2019-02-14T20:11:11.985Z,33.78
2019-02-14T20:17:16.916Z,36.25
2019-02-14T20:23:21.996Z,32.48
2019-02-14T20:29:26.210Z,36.00
2019-02-14T20:35:30.426Z,31.23
2019-02-14T20:41:34.754Z,36.28
2019-02-14T20:47:39.080Z,36.28
2019-02-14T20:53:43.312Z,42.93
2019-02-14T20:59:47.536Z,43.42
2019-02-14T21:05:51.739Z,40.88
2019-02-14T21:11:56.098Z,41.77
2019-02-14T21:18:00.317Z,43.17
2019-02-14T21:24:04.684Z,45.10
2019-02-14T21:30:09.336Z,38.83
2019-02-14T21:36:13.718Z,40.95
2019-02-14T21:42:21.742Z,39.63
2019-02-14T21:48:24.017Z,43.60
2019-02-14T21:54:28.324Z,37.85
2019-02-14T22:00:32.823Z,39.13
2019-02-14T22:06:37.119Z,37.13
2019-02-14T22:12:42.969Z,36.95
2019-02-14T22:18:47.443Z,36.40
2019-02-14T22:24:51.787Z,38.67
2019-02-14T22:30:56.017Z,38.80
2019-02-14T22:37:00.251Z,33.30
2019-02-14T22:43:04.487Z,35.67
2019-02-14T22:49:08.712Z,35.87
2019-02-14T22:55:13.161Z,38.30
2019-02-14T23:01:17.642Z,39.27
2019-02-14T23:07:21.857Z,42.60
2019-02-14T23:13:26.323Z,33.10
2019-02-14T23:19:30.614Z,41.60
2019-02-14T23:25:34.930Z,46.50
2019-02-14T23:31:39.139Z,50.13
2019-02-14T23:37:43.584Z,46.57
2019-02-14T23:43:47.790Z,45.27
2019-02-14T23:49:52.031Z,38.40
2019-02-14T23:55:56.285Z,38.70
